createdAt,value
2019-04-21T00:01:06.702Z,7.67
2019-04-21T00:03:40.802Z,7.17
2019-04-21T00:06:33.630Z,8.20
2019-04-21T00:09:02.359Z,7.57
2019-04-21T00:11:36.255Z,7.80
2019-04-21T00:13:56.197Z,7.93
2019-04-21T00:16:23.784Z,7.63
2019-04-21T00:19:02.589Z,7.80
2019-04-21T00:21:34.504Z,8.20
2019-04-21T00:24:24.812Z,7.60
2019-04-21T00:27:03.828Z,8.70
2019-04-21T00:32:05.601Z,8.33
2019-04-21T00:34:23.722Z,8.80
2019-04-21T00:37:08.317Z,9.20
2019-04-21T00:39:55.802Z,9.43
2019-04-21T00:42:18.404Z,9.47
2019-04-21T00:44:44.377Z,8.97
2019-04-21T00:47:27.786Z,9.17
2019-04-21T00:50:03.571Z,8.47
2019-04-21T00:52:58.159Z,8.93
2019-04-21T00:55:44.598Z,7.77
2019-04-21T00:58:19.441Z,7.90
2019-04-21T01:00:46.226Z,7.70
2019-04-21T01:03:20.633Z,7.60
2019-04-21T01:05:51.699Z,7.53
2019-04-21T01:08:21.794Z,7.50
2019-04-21T01:10:45.860Z,6.20
2019-04-21T01:13:27.282Z,6.47
2019-04-21T01:15:59.578Z,5.90
2019-04-21T01:18:32.899Z,5.97
2019-04-21T01:20:42.760Z,6.00
2019-04-21T01:23:14.626Z,6.13
2019-04-21T01:26:00.821Z,6.10
2019-04-21T01:28:38.214Z,5.83
2019-04-21T01:31:11.012Z,7.13
2019-04-21T01:33:44.699Z,6.60
2019-04-21T01:36:14.513Z,6.73
2019-04-21T01:38:58.004Z,7.23
2019-04-21T01:41:29.602Z,6.87
2019-04-21T01:43:53.518Z,6.40
2019-04-21T01:46:21.887Z,7.33
2019-04-21T01:48:54.239Z,7.83
2019-04-21T01:51:26.033Z,8.33
2019-04-21T01:54:09.244Z,7.97
2019-04-21T01:56:53.981Z,9.23
2019-04-21T01:59:14.098Z,8.70
2019-04-21T02:02:02.058Z,8.80
2019-04-21T02:04:36.449Z,9.27
2019-04-21T02:07:03.097Z,8.57
2019-04-21T02:09:38.169Z,7.27
2019-04-21T02:12:13.503Z,8.03
2019-04-21T02:14:51.141Z,7.50
2019-04-21T02:17:18.707Z,7.17
2019-04-21T02:19:44.589Z,7.43
2019-04-21T02:22:24.618Z,8.40
2019-04-21T02:24:57.788Z,7.03
2019-04-21T02:27:29.838Z,7.17
2019-04-21T02:30:03.473Z,6.60
2019-04-21T02:32:45.733Z,6.50
2019-04-21T02:37:55.594Z,7.90
2019-04-21T02:40:22.327Z,7.23
2019-04-21T02:45:34.238Z,7.10
2019-04-21T02:50:34.053Z,8.57
2019-04-21T02:53:01.421Z,8.10
2019-04-21T02:55:42.050Z,7.60
2019-04-21T02:58:18.729Z,7.37
2019-04-21T03:00:45.034Z,7.73
2019-04-21T03:03:41.734Z,8.00
2019-04-21T03:06:31.440Z,7.90
2019-04-21T03:11:24.519Z,7.80
2019-04-21T03:13:56.761Z,8.40
2019-04-21T03:16:31.498Z,8.57
2019-04-21T03:19:15.360Z,7.97
2019-04-21T03:21:28.967Z,8.50
2019-04-21T03:24:04.823Z,8.67
2019-04-21T03:26:50.474Z,8.67
2019-04-21T03:29:12.520Z,9.03
2019-04-21T03:32:04.376Z,8.90
2019-04-21T03:39:18.314Z,9.83
2019-04-21T03:42:01.974Z,9.60
2019-04-21T03:44:26.317Z,9.33
2019-04-21T03:46:55.673Z,9.90
2019-04-21T03:49:40.374Z,8.73
2019-04-21T03:52:09.001Z,10.13
2019-04-21T03:54:37.042Z,9.43
2019-04-21T03:59:36.791Z,9.83
2019-04-21T04:02:31.233Z,9.57
2019-04-21T04:04:52.998Z,9.90
2019-04-21T04:07:44.214Z,10.03
2019-04-21T04:12:36.554Z,10.20
2019-04-21T04:15:12.102Z,10.73
2019-04-21T04:17:40.062Z,10.23
2019-04-21T04:20:22.212Z,10.23
2019-04-21T04:25:17.500Z,10.20
2019-04-21T04:30:32.000Z,10.10
2019-04-21T04:33:02.518Z,9.90
2019-04-21T04:35:46.210Z,9.70
2019-04-21T04:38:03.338Z,10.80
2019-04-21T04:41:04.347Z,11.90
2019-04-21T04:43:30.478Z,12.57
2019-04-21T04:48:29.168Z,13.57
2019-04-21T04:51:02.040Z,13.97
2019-04-21T04:56:12.338Z,14.07
2019-04-21T04:58:59.562Z,14.20
2019-04-21T05:14:18.282Z,14.07
2019-04-21T05:23:59.933Z,11.20
2019-04-21T05:26:34.546Z,12.20
2019-04-21T05:29:01.844Z,12.13
2019-04-21T05:31:50.267Z,12.07
2019-04-21T05:34:27.398Z,11.97
2019-04-21T05:37:02.651Z,12.00
2019-04-21T05:39:36.095Z,9.90
2019-04-21T05:42:00.727Z,9.43
2019-04-21T05:44:59.918Z,11.60
2019-04-21T05:47:25.005Z,10.20
2019-04-21T05:49:49.892Z,9.90
2019-04-21T05:52:22.794Z,11.23
2019-04-21T05:55:03.971Z,10.03
2019-04-21T05:57:29.116Z,9.23
2019-04-21T06:00:06.189Z,9.60
2019-04-21T06:02:36.663Z,7.87
2019-04-21T06:05:47.399Z,31.73
2019-04-21T06:07:41.271Z,7.70
2019-04-21T06:10:18.371Z,8.90
2019-04-21T06:12:53.813Z,9.63
2019-04-21T06:15:19.695Z,9.43
2019-04-21T06:17:57.878Z,12.00
2019-04-21T06:20:28.787Z,12.03
2019-04-21T06:23:00.851Z,9.80
2019-04-21T06:25:57.508Z,11.10
2019-04-21T06:28:03.601Z,9.10
2019-04-21T06:30:42.389Z,9.80
2019-04-21T06:33:01.746Z,9.93
2019-04-21T06:36:09.006Z,10.63
2019-04-21T06:38:28.429Z,10.07
2019-04-21T06:40:48.440Z,8.50
2019-04-21T06:43:40.371Z,8.07
2019-04-21T06:45:54.219Z,7.07
2019-04-21T06:48:37.313Z,6.03
2019-04-21T06:51:06.977Z,5.23
2019-04-21T06:53:40.847Z,4.57
2019-04-21T06:56:10.482Z,3.97
2019-04-21T06:58:35.578Z,4.80
2019-04-21T07:01:15.843Z,5.10
2019-04-21T07:03:49.306Z,5.20
2019-04-21T07:06:12.704Z,6.93
2019-04-21T07:08:52.940Z,4.33
2019-04-21T07:11:19.871Z,41.37
2019-04-21T07:14:01.930Z,3.90
2019-04-21T07:16:25.699Z,3.20
2019-04-21T07:19:07.150Z,3.20
2019-04-21T07:21:32.461Z,3.33
2019-04-21T07:24:05.408Z,3.40
2019-04-21T07:26:36.912Z,3.23
2019-04-21T07:29:17.115Z,3.50
2019-04-21T07:31:52.521Z,3.97
2019-04-21T07:34:19.753Z,3.57
2019-04-21T07:36:59.643Z,4.20
2019-04-21T07:39:18.509Z,3.90
2019-04-21T07:41:47.111Z,4.20
2019-04-21T07:44:21.032Z,4.10
2019-04-21T07:46:45.280Z,4.00
2019-04-21T07:49:46.711Z,3.70
2019-04-21T07:52:35.108Z,3.27
2019-04-21T07:57:35.154Z,3.33
2019-04-21T08:00:26.880Z,3.90
2019-04-21T08:02:40.639Z,3.80
2019-04-21T08:07:51.972Z,3.07
2019-04-21T08:10:15.618Z,3.27
2019-04-21T08:12:48.914Z,3.20
2019-04-21T08:15:30.628Z,3.67
2019-04-21T08:17:53.360Z,3.50
2019-04-21T08:20:31.389Z,3.67
2019-04-21T08:23:11.060Z,3.50
2019-04-21T08:25:34.909Z,4.27
2019-04-21T08:28:05.712Z,3.23
2019-04-21T08:30:54.356Z,3.13
2019-04-21T08:33:26.241Z,3.73
2019-04-21T08:36:06.008Z,3.37
2019-04-21T08:38:20.059Z,3.47
2019-04-21T08:40:51.073Z,3.40
2019-04-21T08:43:30.676Z,3.93
2019-04-21T08:45:57.672Z,3.90
2019-04-21T08:48:33.443Z,5.87
2019-04-21T08:51:18.526Z,3.90
2019-04-21T08:53:34.898Z,3.60
2019-04-21T08:56:09.996Z,4.33
2019-04-21T08:59:07.484Z,4.07
2019-04-21T09:01:50.083Z,3.80
2019-04-21T09:04:23.364Z,3.60
2019-04-21T09:09:31.956Z,3.80
2019-04-21T09:12:02.707Z,4.00
2019-04-21T09:14:36.397Z,3.40
2019-04-21T09:17:01.656Z,4.03
2019-04-21T09:22:13.199Z,3.73
2019-04-21T09:24:43.013Z,3.80
2019-04-21T09:27:15.853Z,3.60
2019-04-21T09:29:38.310Z,6.10
2019-04-21T09:32:03.423Z,4.73
2019-04-21T09:34:38.535Z,4.47
2019-04-21T09:37:23.549Z,3.80
2019-04-21T09:39:43.720Z,3.70
2019-04-21T09:42:11.559Z,3.60
2019-04-21T09:44:44.389Z,4.00
2019-04-21T09:47:19.027Z,4.00
2019-04-21T09:49:47.456Z,4.23
2019-04-21T09:52:20.933Z,3.60
2019-04-21T09:54:58.635Z,4.07
2019-04-21T09:57:34.685Z,3.90
2019-04-21T10:00:02.471Z,3.87
2019-04-21T10:02:39.957Z,4.40
2019-04-21T10:05:02.316Z,4.20
2019-04-21T10:07:37.046Z,3.97
2019-04-21T10:10:08.358Z,3.87
2019-04-21T10:12:39.175Z,3.70
2019-04-21T10:15:10.674Z,4.30
2019-04-21T10:17:43.953Z,3.60
2019-04-21T10:20:15.028Z,4.23
2019-04-21T10:22:46.758Z,4.60
2019-04-21T10:25:18.688Z,4.03
2019-04-21T10:27:49.650Z,3.87
2019-04-21T10:30:20.551Z,3.87
2019-04-21T10:32:54.393Z,3.90
2019-04-21T10:35:26.204Z,4.40
2019-04-21T10:38:06.748Z,4.30
2019-04-21T10:40:33.141Z,4.00
2019-04-21T10:43:01.650Z,3.67
2019-04-21T10:45:32.784Z,3.37
2019-04-21T10:48:05.145Z,3.80
2019-04-21T10:50:37.041Z,3.80
2019-04-21T10:53:09.345Z,4.27
2019-04-21T10:55:55.693Z,3.90
2019-04-21T10:58:20.366Z,3.90
2019-04-21T11:00:52.785Z,3.87
2019-04-21T11:03:35.304Z,3.80
2019-04-21T11:06:08.498Z,3.87
2019-04-21T11:08:44.120Z,4.60
2019-04-21T11:11:14.135Z,4.60
2019-04-21T11:13:46.290Z,4.73
2019-04-21T11:16:19.331Z,4.53
2019-04-21T11:18:49.955Z,5.03
2019-04-21T11:21:20.853Z,4.43
2019-04-21T11:23:52.208Z,4.30
2019-04-21T11:26:24.522Z,4.40
2019-04-21T11:28:58.902Z,4.10
2019-04-21T11:31:29.616Z,3.97
2019-04-21T11:34:00.909Z,5.40
2019-04-21T11:36:33.171Z,4.97
2019-04-21T11:39:27.232Z,4.80
2019-04-21T11:41:45.782Z,5.17
2019-04-21T11:44:18.294Z,4.30
2019-04-21T11:46:52.179Z,4.97
2019-04-21T11:49:24.244Z,4.77
2019-04-21T11:51:56.495Z,4.07
2019-04-21T11:54:28.792Z,3.93
2019-04-21T11:57:03.166Z,4.27
2019-04-21T11:59:33.449Z,4.40
2019-04-21T12:02:05.575Z,4.00
2019-04-21T12:04:36.371Z,4.67
2019-04-21T12:07:07.270Z,4.17
2019-04-21T12:09:39.470Z,4.53
2019-04-21T12:12:11.598Z,4.37
2019-04-21T12:14:43.827Z,4.23
2019-04-21T12:17:16.054Z,4.27
2019-04-21T12:19:48.552Z,4.40
2019-04-21T12:22:23.842Z,3.77
2019-04-21T12:24:51.743Z,3.73
2019-04-21T12:27:22.530Z,4.07
2019-04-21T12:29:53.479Z,4.10
2019-04-21T12:32:26.327Z,3.73
2019-04-21T12:34:57.823Z,3.63
2019-04-21T12:37:28.993Z,3.93
2019-04-21T12:40:00.800Z,5.43
2019-04-21T12:42:32.411Z,3.90
2019-04-21T12:45:08.169Z,4.03
2019-04-21T12:47:40.186Z,3.77
2019-04-21T12:50:12.773Z,3.83
2019-04-21T12:52:43.660Z,3.50
2019-04-21T12:55:15.467Z,3.77
2019-04-21T12:57:47.581Z,3.50
2019-04-21T13:00:20.900Z,3.70
2019-04-21T13:02:52.015Z,3.80
2019-04-21T13:05:22.805Z,10.60
2019-04-21T13:07:53.623Z,3.20
2019-04-21T13:10:24.436Z,4.43
2019-04-21T13:12:56.287Z,3.93
2019-04-21T13:15:27.404Z,4.10
2019-04-21T13:17:58.482Z,3.70
2019-04-21T13:20:32.071Z,3.70
2019-04-21T13:23:03.815Z,3.60
2019-04-21T13:25:35.939Z,4.07
2019-04-21T13:28:07.040Z,3.70
2019-04-21T13:30:40.226Z,4.67
2019-04-21T13:33:11.368Z,3.93
2019-04-21T13:35:44.496Z,3.70
2019-04-21T13:38:24.361Z,3.47
2019-04-21T13:41:22.847Z,3.70
2019-04-21T13:43:39.174Z,3.97
2019-04-21T13:46:10.270Z,3.90
2019-04-21T13:48:42.401Z,4.13
2019-04-21T13:51:13.563Z,3.90
2019-04-21T13:53:45.653Z,4.20
2019-04-21T13:56:18.361Z,4.73
2019-04-21T13:58:50.496Z,3.63
2019-04-21T14:01:27.687Z,4.10
2019-04-21T14:03:59.407Z,4.20
2019-04-21T14:06:32.138Z,4.43
2019-04-21T14:09:07.311Z,4.10
2019-04-21T14:11:38.076Z,3.60
2019-04-21T14:14:10.265Z,4.03
2019-04-21T14:16:42.230Z,4.20
2019-04-21T14:19:13.207Z,4.20
2019-04-21T14:21:46.423Z,5.07
2019-04-21T14:24:17.217Z,4.33
2019-04-21T14:26:48.025Z,4.47
2019-04-21T14:29:21.661Z,4.57
2019-04-21T14:31:52.549Z,4.50
2019-04-21T14:34:23.865Z,4.83
2019-04-21T14:36:55.008Z,4.13
2019-04-21T14:39:26.410Z,4.60
2019-04-21T14:41:58.138Z,4.53
2019-04-21T14:44:29.225Z,4.43
2019-04-21T14:47:01.380Z,4.53
2019-04-21T14:49:53.214Z,4.80
2019-04-21T14:52:26.852Z,4.73
2019-04-21T14:55:02.841Z,4.80
2019-04-21T14:57:33.596Z,5.77
2019-04-21T15:00:13.420Z,5.00
2019-04-21T15:02:45.476Z,5.57
2019-04-21T15:05:17.567Z,5.57
2019-04-21T15:07:48.959Z,5.50
2019-04-21T15:10:25.256Z,4.87
2019-04-21T15:12:52.109Z,5.57
2019-04-21T15:15:25.569Z,5.60
2019-04-21T15:17:57.817Z,5.20
2019-04-21T15:20:29.028Z,4.90
2019-04-21T15:23:00.121Z,5.03
2019-04-21T15:25:32.235Z,4.53
2019-04-21T15:28:05.442Z,4.67
2019-04-21T15:30:36.601Z,5.13
2019-04-21T15:33:08.556Z,4.47
2019-04-21T15:35:40.681Z,5.37
2019-04-21T15:38:11.842Z,4.97
2019-04-21T15:40:51.522Z,5.30
2019-04-21T15:43:15.081Z,4.93
2019-04-21T15:45:46.774Z,5.17
2019-04-21T15:48:18.249Z,6.20
2019-04-21T15:50:51.531Z,6.63
2019-04-21T15:53:23.603Z,7.03
2019-04-21T15:55:58.993Z,6.90
2019-04-21T15:58:32.421Z,6.80
2019-04-21T16:01:04.851Z,6.03
2019-04-21T16:03:36.534Z,6.60
2019-04-21T16:06:07.705Z,9.97
2019-04-21T16:08:39.531Z,10.50
2019-04-21T16:11:11.364Z,6.10
2019-04-21T16:13:43.524Z,5.63
2019-04-21T16:16:16.751Z,6.03
2019-04-21T16:18:47.907Z,6.20
2019-04-21T16:21:22.153Z,6.33
2019-04-21T16:23:54.144Z,6.50
2019-04-21T16:26:26.443Z,6.27
2019-04-21T16:28:57.518Z,6.37
2019-04-21T16:31:28.157Z,6.97
2019-04-21T16:33:58.903Z,6.57
2019-04-21T16:36:29.635Z,7.10
2019-04-21T16:39:01.737Z,7.17
2019-04-21T16:41:33.956Z,8.00
2019-04-21T16:44:05.167Z,8.27
2019-04-21T16:46:35.806Z,7.90
2019-04-21T16:49:07.541Z,8.80
2019-04-21T16:51:38.476Z,10.13
2019-04-21T16:54:14.078Z,11.77
2019-04-21T16:56:50.077Z,14.23
2019-04-21T16:59:22.524Z,13.80
2019-04-21T17:01:54.447Z,14.53
2019-04-21T17:04:28.617Z,12.90
2019-04-21T17:07:00.871Z,12.90
2019-04-21T17:09:32.630Z,14.00
2019-04-21T17:12:07.404Z,22.57
2019-04-21T17:14:53.657Z,11.43
2019-04-21T17:17:32.279Z,11.27
2019-04-21T17:19:46.566Z,10.67
2019-04-21T17:22:13.871Z,10.03
2019-04-21T17:24:46.391Z,10.23
2019-04-21T17:27:17.484Z,10.17
2019-04-21T17:29:48.681Z,9.73
2019-04-21T17:32:20.478Z,10.30
2019-04-21T17:34:52.161Z,9.83
2019-04-21T17:37:25.125Z,8.80
2019-04-21T17:39:56.508Z,9.70
2019-04-21T17:42:36.365Z,9.07
2019-04-21T17:45:01.306Z,8.97
2019-04-21T17:47:45.004Z,9.47
2019-04-21T17:50:23.283Z,10.50
2019-04-21T17:53:06.541Z,10.30
2019-04-21T17:55:40.650Z,10.00
2019-04-21T17:58:27.268Z,10.33
2019-04-21T18:06:06.372Z,10.07
2019-04-21T18:08:47.420Z,9.70
2019-04-21T18:11:15.382Z,9.73
2019-04-21T18:13:37.592Z,9.37
2019-04-21T18:16:20.191Z,10.10
2019-04-21T18:18:41.181Z,9.80
2019-04-21T18:21:14.539Z,10.13
2019-04-21T18:24:00.138Z,8.97
2019-04-21T18:26:38.015Z,8.97
2019-04-21T18:29:03.417Z,8.87
2019-04-21T18:31:44.819Z,9.10
2019-04-21T18:34:22.798Z,9.07
2019-04-21T18:36:55.602Z,9.30
2019-04-21T18:39:45.314Z,10.13
2019-04-21T18:42:26.255Z,10.03
2019-04-21T18:45:37.242Z,9.80
2019-04-21T18:48:01.385Z,9.37
2019-04-21T18:50:41.759Z,10.23
2019-04-21T18:53:25.616Z,9.80
2019-04-21T18:55:57.536Z,10.40
2019-04-21T18:58:20.073Z,9.97
2019-04-21T19:00:52.943Z,17.73
2019-04-21T19:03:28.137Z,11.90
2019-04-21T19:06:05.145Z,10.67
2019-04-21T19:08:53.632Z,12.17
2019-04-21T19:14:32.322Z,9.23
2019-04-21T19:17:00.484Z,9.17
2019-04-21T19:19:54.364Z,9.40
2019-04-21T19:22:40.181Z,10.10
2019-04-21T19:25:16.416Z,9.77
2019-04-21T19:27:53.273Z,9.63
2019-04-21T19:30:29.825Z,9.80
2019-04-21T19:32:59.395Z,9.87
2019-04-21T19:35:14.955Z,10.70
2019-04-21T19:37:56.416Z,10.50
2019-04-21T19:40:40.857Z,10.50
2019-04-21T19:43:07.048Z,9.43
2019-04-21T19:45:42.262Z,9.77
2019-04-21T19:48:18.426Z,10.40
2019-04-21T19:50:57.845Z,11.77
2019-04-21T19:53:24.281Z,10.77
2019-04-21T19:55:40.610Z,11.30
2019-04-21T19:58:12.636Z,10.57
2019-04-21T20:00:44.472Z,11.27
2019-04-21T20:03:16.495Z,11.03
2019-04-21T20:05:59.275Z,10.60
2019-04-21T20:08:36.719Z,10.90
2019-04-21T20:11:10.448Z,10.63
2019-04-21T20:14:30.705Z,11.00
2019-04-21T20:16:18.976Z,11.73
2019-04-21T20:18:41.650Z,12.37
2019-04-21T20:21:06.112Z,12.70
2019-04-21T20:23:39.672Z,12.80
2019-04-21T20:26:11.525Z,14.87
2019-04-21T20:28:54.703Z,14.90
2019-04-21T20:31:36.072Z,14.13
2019-04-21T20:34:21.231Z,15.33
2019-04-21T20:36:47.637Z,14.87
2019-04-21T20:39:08.292Z,16.20
2019-04-21T20:41:47.663Z,18.67
2019-04-21T20:44:23.073Z,19.13
2019-04-21T20:46:59.654Z,25.20
2019-04-21T20:49:27.306Z,24.63
2019-04-21T20:52:10.814Z,23.13
2019-04-21T20:54:44.040Z,23.23
2019-04-21T20:57:11.469Z,16.47
2019-04-21T20:59:43.924Z,15.50
2019-04-21T21:02:19.957Z,16.50
2019-04-21T21:04:45.707Z,16.43
2019-04-21T21:07:40.493Z,17.47
2019-04-21T21:10:04.983Z,18.57
2019-04-21T21:12:42.969Z,17.40
2019-04-21T21:15:01.181Z,16.70
2019-04-21T21:17:48.419Z,15.83
2019-04-21T21:20:21.361Z,16.97
2019-04-21T21:22:42.280Z,16.43
2019-04-21T21:25:25.837Z,18.50
2019-04-21T21:27:48.273Z,16.43
2019-04-21T21:30:23.140Z,15.60
2019-04-21T21:33:05.684Z,13.97
2019-04-21T21:35:34.590Z,12.83
2019-04-21T21:38:09.949Z,12.77
2019-04-21T21:40:36.620Z,14.43
2019-04-21T21:42:57.325Z,12.27
2019-04-21T21:45:30.648Z,12.43
2019-04-21T21:48:20.818Z,11.53
2019-04-21T21:50:45.915Z,11.03
2019-04-21T21:53:14.497Z,11.17
2019-04-21T21:55:42.654Z,10.00
2019-04-21T21:58:19.380Z,10.93
2019-04-21T22:00:54.639Z,10.10
2019-04-21T22:03:28.375Z,9.97
2019-04-21T22:06:07.300Z,9.97
2019-04-21T22:08:32.378Z,8.57
2019-04-21T22:11:03.334Z,9.90
2019-04-21T22:13:47.530Z,8.67
2019-04-21T22:16:14.394Z,9.40
2019-04-21T22:19:11.458Z,9.00
2019-04-21T22:21:38.579Z,8.67
2019-04-21T22:23:57.651Z,8.80
2019-04-21T22:26:21.478Z,9.30
2019-04-21T22:28:53.807Z,8.80
2019-04-21T22:31:31.582Z,8.83
2019-04-21T22:34:04.821Z,9.10
2019-04-21T22:36:44.437Z,8.33
2019-04-21T22:39:24.764Z,8.10
2019-04-21T22:41:45.273Z,8.43
2019-04-21T22:44:18.762Z,8.67
2019-04-21T22:46:59.970Z,8.90
2019-04-21T22:49:23.731Z,7.93
2019-04-21T22:51:55.672Z,8.70
2019-04-21T22:54:32.618Z,8.17
2019-04-21T22:57:05.227Z,8.17
2019-04-21T22:59:32.421Z,8.33
2019-04-21T23:02:06.363Z,8.57
2019-04-21T23:04:43.513Z,7.87
2019-04-21T23:07:13.573Z,8.07
2019-04-21T23:09:42.955Z,8.43
2019-04-21T23:12:20.431Z,8.83
2019-04-21T23:14:55.483Z,8.80
2019-04-21T23:17:38.928Z,8.47
2019-04-21T23:20:10.258Z,8.87
2019-04-21T23:22:51.369Z,8.63
2019-04-21T23:25:13.623Z,8.57
2019-04-21T23:27:46.971Z,8.83
2019-04-21T23:30:32.274Z,8.33
2019-04-21T23:32:48.821Z,8.83
2019-04-21T23:35:18.016Z,8.27
2019-04-21T23:37:51.041Z,8.43
2019-04-21T23:40:21.357Z,8.33
2019-04-21T23:42:49.203Z,8.27
2019-04-21T23:45:25.112Z,8.47
2019-04-21T23:48:10.866Z,8.93
2019-04-21T23:50:37.909Z,7.87
2019-04-21T23:53:01.645Z,8.73
2019-04-21T23:55:32.464Z,8.83
2019-04-21T23:58:13.401Z,9.00
